sensor_id;sensor_type;location;lat;lon;timestamp;pressure;altitude;pressure_sealevel;temperature;humidity
25526;BME280;13424;48.424;11.258;2022-11-20T00:01:17;95001.69;;;8.29;83.92
25526;BME280;13424;48.424;11.258;2022-11-20T00:03:43;95006.91;;;8.36;84.41
25526;BME280;13424;48.424;11.258;2022-11-20T00:06:15;95005.91;;;8.25;84.83
25526;BME280;13424;48.424;11.258;2022-11-20T00:08:41;95007.19;;;8.23;84.42
25526;BME280;13424;48.424;11.258;2022-11-20T00:11:11;95006.97;;;8.12;85.48
25526;BME280;13424;48.424;11.258;2022-11-20T00:13:38;95007.41;;;8.21;85.21
25526;BME280;13424;48.424;11.258;2022-11-20T00:16:05;95012.06;;;8.43;84.35
25526;BME280;13424;48.424;11.258;2022-11-20T00:18:34;95010.16;;;8.38;83.85
25526;BME280;13424;48.424;11.258;2022-11-20T00:21:05;95014.00;;;8.19;84.79
25526;BME280;13424;48.424;11.258;2022-11-20T00:23:32;95013.81;;;8.37;83.91
25526;BME280;13424;48.424;11.258;2022-11-20T00:26:09;95014.28;;;8.34;83.98
25526;BME280;13424;48.424;11.258;2022-11-20T00:28:36;95013.47;;;8.33;83.86
25526;BME280;13424;48.424;11.258;2022-11-20T00:31:13;95021.69;;;8.32;83.91
25526;BME280;13424;48.424;11.258;2022-11-20T00:33:40;95020.53;;;8.28;83.28
25526;BME280;13424;48.424;11.258;2022-11-20T00:36:09;95015.47;;;8.26;83.47
25526;BME280;13424;48.424;11.258;2022-11-20T00:38:36;95017.63;;;8.29;83.42
25526;BME280;13424;48.424;11.258;2022-11-20T00:41:06;95028.44;;;8.23;83.15
25526;BME280;13424;48.424;11.258;2022-11-20T00:43:32;95024.09;;;8.33;82.72
25526;BME280;13424;48.424;11.258;2022-11-20T00:46:07;95030.22;;;8.34;82.63
25526;BME280;13424;48.424;11.258;2022-11-20T00:48:33;95028.91;;;8.20;83.69
25526;BME280;13424;48.424;11.258;2022-11-20T00:50:59;95026.84;;;8.22;83.31
25526;BME280;13424;48.424;11.258;2022-11-20T00:53:25;95034.84;;;8.10;83.03
25526;BME280;13424;48.424;11.258;2022-11-20T00:55:59;95039.16;;;7.99;83.79
25526;BME280;13424;48.424;11.258;2022-11-20T00:58:29;95031.75;;;8.01;83.48
25526;BME280;13424;48.424;11.258;2022-11-20T01:01:07;95035.25;;;8.19;83.49
25526;BME280;13424;48.424;11.258;2022-11-20T01:03:35;95038.00;;;7.95;83.64
25526;BME280;13424;48.424;11.258;2022-11-20T01:06:03;95042.88;;;7.98;83.19
25526;BME280;13424;48.424;11.258;2022-11-20T01:08:34;95044.56;;;8.04;83.28
25526;BME280;13424;48.424;11.258;2022-11-20T01:11:07;95044.66;;;8.09;83.69
25526;BME280;13424;48.424;11.258;2022-11-20T01:13:34;95054.34;;;8.16;82.59
25526;BME280;13424;48.424;11.258;2022-11-20T01:16:08;95050.44;;;8.06;82.76
25526;BME280;13424;48.424;11.258;2022-11-20T01:18:36;95043.72;;;8.16;82.82
25526;BME280;13424;48.424;11.258;2022-11-20T01:21:09;95049.97;;;8.09;82.99
25526;BME280;13424;48.424;11.258;2022-11-20T01:23:37;95049.88;;;8.04;83.04
25526;BME280;13424;48.424;11.258;2022-11-20T01:26:06;95051.84;;;7.97;83.35
25526;BME280;13424;48.424;11.258;2022-11-20T01:28:33;95051.09;;;8.13;82.47
25526;BME280;13424;48.424;11.258;2022-11-20T01:30:59;95053.06;;;8.18;82.22
25526;BME280;13424;48.424;11.258;2022-11-20T01:33:26;95057.56;;;8.18;82.42
25526;BME280;13424;48.424;11.258;2022-11-20T01:35:52;95061.72;;;8.13;82.03
25526;BME280;13424;48.424;11.258;2022-11-20T01:38:18;95055.09;;;7.99;82.72
25526;BME280;13424;48.424;11.258;2022-11-20T01:40:53;95052.81;;;8.20;82.11
25526;BME280;13424;48.424;11.258;2022-11-20T01:43:20;95052.53;;;8.04;82.23
25526;BME280;13424;48.424;11.258;2022-11-20T01:46:08;95052.31;;;8.06;82.25
25526;BME280;13424;48.424;11.258;2022-11-20T01:49:03;95051.66;;;7.87;82.46
25526;BME280;13424;48.424;11.258;2022-11-20T01:54:00;95054.06;;;7.89;82.69
25526;BME280;13424;48.424;11.258;2022-11-20T01:56:27;95055.34;;;7.86;82.41
25526;BME280;13424;48.424;11.258;2022-11-20T01:58:56;95067.63;;;7.64;83.07
25526;BME280;13424;48.424;11.258;2022-11-20T02:01:23;95057.22;;;7.74;83.03
25526;BME280;13424;48.424;11.258;2022-11-20T02:03:49;95046.69;;;7.50;84.06
25526;BME280;13424;48.424;11.258;2022-11-20T02:06:31;95062.69;;;7.55;84.14
25526;BME280;13424;48.424;11.258;2022-11-20T02:09:00;95056.34;;;7.56;83.83
25526;BME280;13424;48.424;11.258;2022-11-20T02:11:25;95059.53;;;7.82;83.02
25526;BME280;13424;48.424;11.258;2022-11-20T02:13:52;95057.50;;;7.61;83.22
25526;BME280;13424;48.424;11.258;2022-11-20T02:16:25;95058.41;;;7.66;83.37
25526;BME280;13424;48.424;11.258;2022-11-20T02:18:52;95062.16;;;7.94;82.37
25526;BME280;13424;48.424;11.258;2022-11-20T02:21:46;95063.81;;;7.83;83.12
25526;BME280;13424;48.424;11.258;2022-11-20T02:24:16;95045.03;;;7.61;83.72
25526;BME280;13424;48.424;11.258;2022-11-20T02:27:07;95061.34;;;7.93;82.76
25526;BME280;13424;48.424;11.258;2022-11-20T02:29:57;95059.00;;;7.56;83.35
25526;BME280;13424;48.424;11.258;2022-11-20T02:32:34;95061.66;;;7.56;83.25
25526;BME280;13424;48.424;11.258;2022-11-20T02:37:35;95054.78;;;7.84;82.25
25526;BME280;13424;48.424;11.258;2022-11-20T02:40:02;95064.66;;;7.60;82.14
25526;BME280;13424;48.424;11.258;2022-11-20T02:42:28;95063.94;;;7.65;82.73
25526;BME280;13424;48.424;11.258;2022-11-20T02:44:54;95056.06;;;7.81;81.91
25526;BME280;13424;48.424;11.258;2022-11-20T02:47:20;95051.59;;;7.70;82.50
25526;BME280;13424;48.424;11.258;2022-11-20T02:49:45;95052.22;;;7.89;81.82
25526;BME280;13424;48.424;11.258;2022-11-20T02:52:11;95048.56;;;7.78;82.14
25526;BME280;13424;48.424;11.258;2022-11-20T02:54:37;95059.88;;;7.74;82.32
25526;BME280;13424;48.424;11.258;2022-11-20T02:57:03;95054.78;;;7.84;82.26
25526;BME280;13424;48.424;11.258;2022-11-20T02:59:29;95054.00;;;7.72;82.27
25526;BME280;13424;48.424;11.258;2022-11-20T03:01:54;95056.47;;;7.62;82.41
25526;BME280;13424;48.424;11.258;2022-11-20T03:04:20;95051.75;;;7.52;81.97
25526;BME280;13424;48.424;11.258;2022-11-20T03:06:46;95049.63;;;7.66;82.16
25526;BME280;13424;48.424;11.258;2022-11-20T03:09:12;95047.25;;;7.41;82.79
25526;BME280;13424;48.424;11.258;2022-11-20T03:11:38;95051.16;;;7.62;82.43
25526;BME280;13424;48.424;11.258;2022-11-20T03:14:05;95052.00;;;7.50;83.25
25526;BME280;13424;48.424;11.258;2022-11-20T03:16:32;95050.25;;;7.44;83.02
25526;BME280;13424;48.424;11.258;2022-11-20T03:18:58;95052.31;;;7.54;83.61
25526;BME280;13424;48.424;11.258;2022-11-20T03:21:24;95052.00;;;7.50;82.99
25526;BME280;13424;48.424;11.258;2022-11-20T03:23:50;95050.78;;;7.70;82.02
25526;BME280;13424;48.424;11.258;2022-11-20T03:26:23;95051.81;;;7.69;81.68
25526;BME280;13424;48.424;11.258;2022-11-20T03:29:01;95053.00;;;7.61;81.15
25526;BME280;13424;48.424;11.258;2022-11-20T03:31:30;95057.38;;;7.67;81.87
25526;BME280;13424;48.424;11.258;2022-11-20T03:33:57;95053.94;;;7.55;81.66
25526;BME280;13424;48.424;11.258;2022-11-20T03:36:24;95052.97;;;7.73;81.74
25526;BME280;13424;48.424;11.258;2022-11-20T03:38:50;95057.69;;;7.71;81.95
25526;BME280;13424;48.424;11.258;2022-11-20T03:41:25;95050.81;;;7.46;81.29
25526;BME280;13424;48.424;11.258;2022-11-20T03:43:53;95058.31;;;7.61;81.26
25526;BME280;13424;48.424;11.258;2022-11-20T03:46:20;95058.38;;;7.78;81.33
25526;BME280;13424;48.424;11.258;2022-11-20T03:48:47;95058.63;;;7.65;80.78
25526;BME280;13424;48.424;11.258;2022-11-20T03:51:22;95049.25;;;7.74;81.19
25526;BME280;13424;48.424;11.258;2022-11-20T03:53:50;95049.25;;;7.74;80.93
25526;BME280;13424;48.424;11.258;2022-11-20T03:56:22;95048.75;;;7.89;80.48
25526;BME280;13424;48.424;11.258;2022-11-20T03:58:48;95053.06;;;7.78;80.30
25526;BME280;13424;48.424;11.258;2022-11-20T04:01:20;95045.28;;;7.60;80.58
25526;BME280;13424;48.424;11.258;2022-11-20T04:03:46;95057.69;;;7.82;80.95
25526;BME280;13424;48.424;11.258;2022-11-20T04:06:17;95051.53;;;7.94;80.28
25526;BME280;13424;48.424;11.258;2022-11-20T04:08:43;95048.38;;;7.68;80.57
25526;BME280;13424;48.424;11.258;2022-11-20T04:13:40;95048.00;;;7.76;79.85
25526;BME280;13424;48.424;11.258;2022-11-20T04:16:07;95052.28;;;7.66;80.07
25526;BME280;13424;48.424;11.258;2022-11-20T04:18:34;95052.22;;;7.37;80.40
25526;BME280;13424;48.424;11.258;2022-11-20T04:21:00;95050.59;;;7.60;80.14
25526;BME280;13424;48.424;11.258;2022-11-20T04:23:26;95050.59;;;7.60;79.84
25526;BME280;13424;48.424;11.258;2022-11-20T04:25:52;95042.19;;;7.51;79.12
25526;BME280;13424;48.424;11.258;2022-11-20T04:28:18;95047.44;;;7.63;79.09
25526;BME280;13424;48.424;11.258;2022-11-20T04:30:44;95056.66;;;7.72;79.04
25526;BME280;13424;48.424;11.258;2022-11-20T04:33:10;95047.09;;;7.71;79.18
25526;BME280;13424;48.424;11.258;2022-11-20T04:35:36;95043.66;;;7.59;80.22
25526;BME280;13424;48.424;11.258;2022-11-20T04:38:03;95046.19;;;7.53;79.90
25526;BME280;13424;48.424;11.258;2022-11-20T04:40:29;95052.75;;;7.63;80.00
25526;BME280;13424;48.424;11.258;2022-11-20T04:42:55;95043.75;;;7.75;79.17
25526;BME280;13424;48.424;11.258;2022-11-20T04:45:22;95046.19;;;7.53;79.79
25526;BME280;13424;48.424;11.258;2022-11-20T04:47:48;95044.47;;;7.47;80.25
25526;BME280;13424;48.424;11.258;2022-11-20T04:50:14;95043.66;;;7.47;79.91
25526;BME280;13424;48.424;11.258;2022-11-20T04:52:40;95033.81;;;6.95;82.01
25526;BME280;13424;48.424;11.258;2022-11-20T04:55:07;95045.53;;;7.23;80.95
25526;BME280;13424;48.424;11.258;2022-11-20T04:57:33;95041.63;;;7.37;80.72
25526;BME280;13424;48.424;11.258;2022-11-20T04:59:59;95044.25;;;7.37;80.15
25526;BME280;13424;48.424;11.258;2022-11-20T05:02:24;95042.31;;;7.21;80.67
25526;BME280;13424;48.424;11.258;2022-11-20T05:04:50;95048.28;;;7.40;80.53
25526;BME280;13424;48.424;11.258;2022-11-20T05:07:16;95049.81;;;7.36;80.67
25526;BME280;13424;48.424;11.258;2022-11-20T05:09:42;95047.50;;;7.39;80.33
25526;BME280;13424;48.424;11.258;2022-11-20T05:12:08;95047.50;;;7.27;80.25
25526;BME280;13424;48.424;11.258;2022-11-20T05:14:34;95042.41;;;7.38;80.69
25526;BME280;13424;48.424;11.258;2022-11-20T05:17:00;95047.50;;;7.39;79.97
25526;BME280;13424;48.424;11.258;2022-11-20T05:19:26;95038.41;;;7.35;79.41
25526;BME280;13424;48.424;11.258;2022-11-20T05:21:52;95039.53;;;7.16;80.59
25526;BME280;13424;48.424;11.258;2022-11-20T05:24:17;95035.63;;;7.18;80.01
25526;BME280;13424;48.424;11.258;2022-11-20T05:26:43;95036.75;;;7.11;80.49
25526;BME280;13424;48.424;11.258;2022-11-20T05:29:11;95038.97;;;7.25;79.63
25526;BME280;13424;48.424;11.258;2022-11-20T05:31:40;95039.53;;;6.92;79.91
25526;BME280;13424;48.424;11.258;2022-11-20T05:34:06;95045.31;;;6.89;80.27
25526;BME280;13424;48.424;11.258;2022-11-20T05:36:32;95050.38;;;7.03;79.37
25526;BME280;13424;48.424;11.258;2022-11-20T05:38:58;95044.84;;;6.92;80.12
25526;BME280;13424;48.424;11.258;2022-11-20T05:41:24;95040.25;;;6.88;79.70
25526;BME280;13424;48.424;11.258;2022-11-20T05:43:50;95044.41;;;6.95;79.89
25526;BME280;13424;48.424;11.258;2022-11-20T05:46:19;95044.16;;;6.85;79.73
25526;BME280;13424;48.424;11.258;2022-11-20T05:48:45;95042.75;;;6.71;80.48
25526;BME280;13424;48.424;11.258;2022-11-20T05:51:15;95045.88;;;6.91;79.76
25526;BME280;13424;48.424;11.258;2022-11-20T05:53:41;95051.75;;;6.93;80.95
25526;BME280;13424;48.424;11.258;2022-11-20T05:56:10;95055.69;;;7.03;80.20
25526;BME280;13424;48.424;11.258;2022-11-20T05:58:37;95051.31;;;6.96;80.59
25526;BME280;13424;48.424;11.258;2022-11-20T06:01:09;95047.88;;;6.96;80.38
25526;BME280;13424;48.424;11.258;2022-11-20T06:03:36;95058.00;;;6.87;80.91
25526;BME280;13424;48.424;11.258;2022-11-20T06:06:04;95058.81;;;6.99;80.41
25526;BME280;13424;48.424;11.258;2022-11-20T06:08:30;95064.81;;;7.07;80.41
25526;BME280;13424;48.424;11.258;2022-11-20T06:10:56;95067.78;;;7.10;80.59
25526;BME280;13424;48.424;11.258;2022-11-20T06:13:22;95071.16;;;7.29;79.46
25526;BME280;13424;48.424;11.258;2022-11-20T06:15:50;95072.66;;;7.37;79.43
25526;BME280;13424;48.424;11.258;2022-11-20T06:18:16;95068.47;;;7.41;79.20
25526;BME280;13424;48.424;11.258;2022-11-20T06:20:41;95074.47;;;7.48;79.70
25526;BME280;13424;48.424;11.258;2022-11-20T06:23:07;95078.72;;;7.61;78.26
25526;BME280;13424;48.424;11.258;2022-11-20T06:25:33;95072.75;;;7.53;78.57
25526;BME280;13424;48.424;11.258;2022-11-20T06:28:02;95078.81;;;7.66;77.59
25526;BME280;13424;48.424;11.258;2022-11-20T06:30:28;95081.53;;;7.94;77.52
25526;BME280;13424;48.424;11.258;2022-11-20T06:32:53;95081.84;;;8.09;77.11
25526;BME280;13424;48.424;11.258;2022-11-20T06:35:19;95081.84;;;7.69;78.10
25526;BME280;13424;48.424;11.258;2022-11-20T06:37:45;95073.53;;;7.54;78.63
25526;BME280;13424;48.424;11.258;2022-11-20T06:40:11;95072.59;;;7.72;78.40
25526;BME280;13424;48.424;11.258;2022-11-20T06:42:37;95079.63;;;7.78;77.44
25526;BME280;13424;48.424;11.258;2022-11-20T06:45:03;95091.72;;;7.74;77.24
25526;BME280;13424;48.424;11.258;2022-11-20T06:47:29;95094.44;;;7.50;78.08
25526;BME280;13424;48.424;11.258;2022-11-20T06:49:55;95093.94;;;7.65;77.92
25526;BME280;13424;48.424;11.258;2022-11-20T06:52:21;95089.69;;;7.64;77.99
25526;BME280;13424;48.424;11.258;2022-11-20T06:54:46;95096.91;;;7.80;77.79
25526;BME280;13424;48.424;11.258;2022-11-20T06:57:12;95095.78;;;7.65;77.69
25526;BME280;13424;48.424;11.258;2022-11-20T06:59:38;95093.72;;;7.67;78.24
25526;BME280;13424;48.424;11.258;2022-11-20T07:02:04;95095.34;;;7.68;77.19
25526;BME280;13424;48.424;11.258;2022-11-20T07:04:30;95099.69;;;7.74;77.91
25526;BME280;13424;48.424;11.258;2022-11-20T07:06:55;95097.84;;;7.86;77.12
25526;BME280;13424;48.424;11.258;2022-11-20T07:09:21;95096.34;;;7.78;77.82
25526;BME280;13424;48.424;11.258;2022-11-20T07:11:47;95098.41;;;7.88;77.29
25526;BME280;13424;48.424;11.258;2022-11-20T07:14:13;95101.53;;;7.85;76.63
25526;BME280;13424;48.424;11.258;2022-11-20T07:16:38;95095.09;;;7.57;77.49
25526;BME280;13424;48.424;11.258;2022-11-20T07:19:04;95105.44;;;7.94;76.46
25526;BME280;13424;48.424;11.258;2022-11-20T07:21:30;95098.09;;;7.84;76.43
25526;BME280;13424;48.424;11.258;2022-11-20T07:23:56;95096.72;;;7.82;75.67
25526;BME280;13424;48.424;11.258;2022-11-20T07:26:22;95102.81;;;7.82;76.20
25526;BME280;13424;48.424;11.258;2022-11-20T07:28:48;95106.22;;;8.06;75.51
25526;BME280;13424;48.424;11.258;2022-11-20T07:31:14;95102.09;;;7.99;76.45
25526;BME280;13424;48.424;11.258;2022-11-20T07:33:39;95102.16;;;8.16;75.77
25526;BME280;13424;48.424;11.258;2022-11-20T07:36:05;95099.44;;;7.87;77.10
25526;BME280;13424;48.424;11.258;2022-11-20T07:38:31;95095.31;;;7.79;77.19
25526;BME280;13424;48.424;11.258;2022-11-20T07:40:57;95101.72;;;8.07;76.22
25526;BME280;13424;48.424;11.258;2022-11-20T07:43:24;95102.91;;;7.99;76.02
25526;BME280;13424;48.424;11.258;2022-11-20T07:45:50;95104.38;;;8.07;75.79
25526;BME280;13424;48.424;11.258;2022-11-20T07:48:16;95107.34;;;7.82;75.68
25526;BME280;13424;48.424;11.258;2022-11-20T07:50:42;95107.34;;;8.22;75.12
25526;BME280;13424;48.424;11.258;2022-11-20T07:53:08;95100.25;;;7.88;75.65
25526;BME280;13424;48.424;11.258;2022-11-20T07:55:33;95102.97;;;8.16;75.75
25526;BME280;13424;48.424;11.258;2022-11-20T07:57:59;95106.03;;;8.36;75.49
25526;BME280;13424;48.424;11.258;2022-11-20T08:00:26;95109.59;;;8.42;75.67
25526;BME280;13424;48.424;11.258;2022-11-20T08:02:52;95119.03;;;8.09;75.44
25526;BME280;13424;48.424;11.258;2022-11-20T08:05:18;95110.69;;;8.18;75.58
25526;BME280;13424;48.424;11.258;2022-11-20T08:07:44;95105.63;;;8.04;75.68
25526;BME280;13424;48.424;11.258;2022-11-20T08:10:13;95109.53;;;8.13;75.78
25526;BME280;13424;48.424;11.258;2022-11-20T08:12:47;95105.13;;;8.31;75.64
25526;BME280;13424;48.424;11.258;2022-11-20T08:15:32;95108.59;;;8.20;75.94
25526;BME280;13424;48.424;11.258;2022-11-20T08:18:04;95109.72;;;8.35;74.55
25526;BME280;13424;48.424;11.258;2022-11-20T08:20:31;95104.06;;;8.32;75.81
25526;BME280;13424;48.424;11.258;2022-11-20T08:23:07;95097.16;;;8.19;75.68
25526;BME280;13424;48.424;11.258;2022-11-20T08:25:35;95108.53;;;8.15;75.24
25526;BME280;13424;48.424;11.258;2022-11-20T08:28:06;95105.69;;;8.21;75.59
25526;BME280;13424;48.424;11.258;2022-11-20T08:30:33;95106.88;;;8.13;75.81
25526;BME280;13424;48.424;11.258;2022-11-20T08:33:08;95116.91;;;8.35;75.79
25526;BME280;13424;48.424;11.258;2022-11-20T08:35:37;95111.56;;;8.35;75.63
25526;BME280;13424;48.424;11.258;2022-11-20T08:38:07;95109.63;;;7.90;76.36
25526;BME280;13424;48.424;11.258;2022-11-20T08:40:33;95112.88;;;8.21;76.02
25526;BME280;13424;48.424;11.258;2022-11-20T08:42:59;95115.19;;;8.17;75.87
25526;BME280;13424;48.424;11.258;2022-11-20T08:45:25;95110.13;;;8.16;75.48
25526;BME280;13424;48.424;11.258;2022-11-20T08:47:51;95114.03;;;8.25;75.99
25526;BME280;13424;48.424;11.258;2022-11-20T08:50:17;95113.19;;;8.36;75.41
25526;BME280;13424;48.424;11.258;2022-11-20T08:52:43;95115.00;;;8.47;75.84
25526;BME280;13424;48.424;11.258;2022-11-20T08:55:09;95107.41;;;8.39;75.56
25526;BME280;13424;48.424;11.258;2022-11-20T08:57:36;95113.53;;;8.39;74.70
25526;BME280;13424;48.424;11.258;2022-11-20T09:00:05;95111.59;;;8.23;76.24
25526;BME280;13424;48.424;11.258;2022-11-20T09:02:31;95115.84;;;8.36;76.04
25526;BME280;13424;48.424;11.258;2022-11-20T09:04:58;95118.66;;;8.18;75.31
25526;BME280;13424;48.424;11.258;2022-11-20T09:07:24;95115.19;;;8.17;75.21
25526;BME280;13424;48.424;11.258;2022-11-20T09:09:49;95118.22;;;8.49;75.49
25526;BME280;13424;48.424;11.258;2022-11-20T09:12:15;95121.69;;;8.50;75.31
25526;BME280;13424;48.424;11.258;2022-11-20T09:14:41;95115.47;;;8.44;75.57
25526;BME280;13424;48.424;11.258;2022-11-20T09:17:07;95121.44;;;8.80;74.75
25526;BME280;13424;48.424;11.258;2022-11-20T09:19:33;95121.16;;;8.36;75.48
25526;BME280;13424;48.424;11.258;2022-11-20T09:21:59;95119.94;;;8.55;75.74
25526;BME280;13424;48.424;11.258;2022-11-20T09:24:26;95121.47;;;8.68;75.10
25526;BME280;13424;48.424;11.258;2022-11-20T09:26:53;95123.25;;;8.62;75.19
25526;BME280;13424;48.424;11.258;2022-11-20T09:29:19;95110.06;;;8.39;75.15
25526;BME280;13424;48.424;11.258;2022-11-20T09:31:44;95117.00;;;8.40;76.01
25526;BME280;13424;48.424;11.258;2022-11-20T09:34:10;95117.06;;;8.74;75.31
25526;BME280;13424;48.424;11.258;2022-11-20T09:36:36;95114.75;;;8.77;75.16
25526;BME280;13424;48.424;11.258;2022-11-20T09:39:02;95111.06;;;8.78;74.23
25526;BME280;13424;48.424;11.258;2022-11-20T09:41:56;95112.03;;;9.06;74.17
25526;BME280;13424;48.424;11.258;2022-11-20T09:50:26;95113.31;;;9.03;74.31
25526;BME280;13424;48.424;11.258;2022-11-20T09:55:46;95109.53;;;9.33;72.72
25526;BME280;13424;48.424;11.258;2022-11-20T10:00:52;95113.22;;;9.65;72.72
25526;BME280;13424;48.424;11.258;2022-11-20T10:03:37;95103.94;;;9.90;72.09
25526;BME280;13424;48.424;11.258;2022-11-20T10:06:05;95098.81;;;10.05;71.92
25526;BME280;13424;48.424;11.258;2022-11-20T10:08:51;95099.38;;;9.68;72.15
25526;BME280;13424;48.424;11.258;2022-11-20T10:11:38;95101.41;;;9.61;72.00
25526;BME280;13424;48.424;11.258;2022-11-20T10:26:28;95097.25;;;9.32;72.40
25526;BME280;13424;48.424;11.258;2022-11-20T10:29:27;95096.66;;;9.25;73.41
25526;BME280;13424;48.424;11.258;2022-11-20T10:32:04;95095.59;;;9.09;72.91
25526;BME280;13424;48.424;11.258;2022-11-20T10:34:49;95100.44;;;8.95;73.39
25526;BME280;13424;48.424;11.258;2022-11-20T10:37:23;95098.94;;;8.71;74.38
25526;BME280;13424;48.424;11.258;2022-11-20T10:42:46;95105.75;;;8.95;73.80
25526;BME280;13424;48.424;11.258;2022-11-20T10:48:27;95099.13;;;8.81;73.26
25526;BME280;13424;48.424;11.258;2022-11-20T10:51:10;95094.34;;;8.66;72.94
25526;BME280;13424;48.424;11.258;2022-11-20T10:53:54;95095.41;;;8.82;73.84
25526;BME280;13424;48.424;11.258;2022-11-20T10:56:46;95093.66;;;9.04;73.69
25526;BME280;13424;48.424;11.258;2022-11-20T10:59:38;95100.03;;;9.03;73.22
25526;BME280;13424;48.424;11.258;2022-11-20T11:02:23;95090.50;;;9.07;73.27
25526;BME280;13424;48.424;11.258;2022-11-20T11:04:51;95083.81;;;9.21;73.30
25526;BME280;13424;48.424;11.258;2022-11-20T11:07:35;95095.91;;;9.12;72.24
25526;BME280;13424;48.424;11.258;2022-11-20T11:10:01;95085.59;;;9.33;72.55
25526;BME280;13424;48.424;11.258;2022-11-20T11:12:28;95087.69;;;9.14;72.73
25526;BME280;13424;48.424;11.258;2022-11-20T11:14:56;95079.00;;;8.85;73.57
25526;BME280;13424;48.424;11.258;2022-11-20T11:17:32;95077.38;;;9.01;72.88
25526;BME280;13424;48.424;11.258;2022-11-20T11:20:20;95066.00;;;8.88;73.55
25526;BME280;13424;48.424;11.258;2022-11-20T11:25:33;95067.16;;;8.47;74.51
25526;BME280;13424;48.424;11.258;2022-11-20T11:30:44;95067.06;;;9.04;73.34
25526;BME280;13424;48.424;11.258;2022-11-20T11:33:17;95060.88;;;9.37;72.41
25526;BME280;13424;48.424;11.258;2022-11-20T11:35:47;95057.16;;;9.16;72.56
25526;BME280;13424;48.424;11.258;2022-11-20T11:38:16;95061.81;;;9.09;72.73
25526;BME280;13424;48.424;11.258;2022-11-20T11:40:45;95042.97;;;8.94;72.49
25526;BME280;13424;48.424;11.258;2022-11-20T11:43:23;95066.06;;;8.77;74.82
25526;BME280;13424;48.424;11.258;2022-11-20T11:49:22;95063.19;;;8.61;76.21
25526;BME280;13424;48.424;11.258;2022-11-20T11:52:25;95053.50;;;8.55;76.29
25526;BME280;13424;48.424;11.258;2022-11-20T11:54:55;95058.97;;;8.82;76.39
25526;BME280;13424;48.424;11.258;2022-11-20T12:05:29;95049.78;;;8.90;73.50
25526;BME280;13424;48.424;11.258;2022-11-20T12:08:42;95054.78;;;9.20;73.98
25526;BME280;13424;48.424;11.258;2022-11-20T12:13:55;95043.44;;;8.91;74.45
25526;BME280;13424;48.424;11.258;2022-11-20T12:16:24;95040.00;;;9.29;73.78
25526;BME280;13424;48.424;11.258;2022-11-20T12:18:52;95047.06;;;8.85;74.17
25526;BME280;13424;48.424;11.258;2022-11-20T12:21:58;95046.25;;;8.67;74.48
25526;BME280;13424;48.424;11.258;2022-11-20T12:24:54;95044.88;;;8.82;75.22
25526;BME280;13424;48.424;11.258;2022-11-20T12:27:52;95030.13;;;8.57;75.70
25526;BME280;13424;48.424;11.258;2022-11-20T12:30:22;95038.19;;;8.62;76.19
25526;BME280;13424;48.424;11.258;2022-11-20T12:38:54;95037.31;;;8.57;75.72
25526;BME280;13424;48.424;11.258;2022-11-20T13:02:22;95026.25;;;8.48;76.58
25526;BME280;13424;48.424;11.258;2022-11-20T13:05:10;95035.59;;;8.51;77.17
25526;BME280;13424;48.424;11.258;2022-11-20T13:07:38;95028.53;;;8.56;76.87
25526;BME280;13424;48.424;11.258;2022-11-20T13:10:06;95027.06;;;8.65;76.97
25526;BME280;13424;48.424;11.258;2022-11-20T13:13:10;95020.94;;;8.99;76.53
25526;BME280;13424;48.424;11.258;2022-11-20T13:15:55;95019.03;;;8.94;76.01
25526;BME280;13424;48.424;11.258;2022-11-20T13:18:24;95016.59;;;8.76;76.29
25526;BME280;13424;48.424;11.258;2022-11-20T13:20:50;95023.91;;;8.68;76.37
25526;BME280;13424;48.424;11.258;2022-11-20T13:23:25;95016.59;;;8.76;76.43
25526;BME280;13424;48.424;11.258;2022-11-20T13:26:21;95004.53;;;8.85;77.16
25526;BME280;13424;48.424;11.258;2022-11-20T13:28:59;95007.25;;;8.73;76.33
25526;BME280;13424;48.424;11.258;2022-11-20T13:31:31;95006.19;;;8.57;76.67
25526;BME280;13424;48.424;11.258;2022-11-20T13:33:57;95007.75;;;8.53;77.61
25526;BME280;13424;48.424;11.258;2022-11-20T13:36:27;95011.28;;;8.59;77.18
25526;BME280;13424;48.424;11.258;2022-11-20T13:38:55;95002.59;;;8.47;77.40
25526;BME280;13424;48.424;11.258;2022-11-20T13:41:31;95005.00;;;8.82;76.98
25526;BME280;13424;48.424;11.258;2022-11-20T13:44:26;95013.47;;;8.79;77.50
25526;BME280;13424;48.424;11.258;2022-11-20T13:46:54;95001.63;;;8.70;77.54
25526;BME280;13424;48.424;11.258;2022-11-20T13:49:31;95005.50;;;8.79;77.08
25526;BME280;13424;48.424;11.258;2022-11-20T13:55:12;95000.63;;;8.76;76.72
25526;BME280;13424;48.424;11.258;2022-11-20T14:00:18;95005.94;;;8.42;78.52
25526;BME280;13424;48.424;11.258;2022-11-20T14:02:57;95002.63;;;8.35;78.46
25526;BME280;13424;48.424;11.258;2022-11-20T14:05:25;95003.69;;;8.67;77.63
25526;BME280;13424;48.424;11.258;2022-11-20T14:07:51;95001.94;;;8.39;78.23
25526;BME280;13424;48.424;11.258;2022-11-20T14:10:29;95006.28;;;8.46;78.27
25526;BME280;13424;48.424;11.258;2022-11-20T14:12:55;95006.44;;;8.73;77.60
25526;BME280;13424;48.424;11.258;2022-11-20T14:15:30;95008.31;;;8.55;78.03
25526;BME280;13424;48.424;11.258;2022-11-20T14:17:58;95018.75;;;8.45;77.99
25526;BME280;13424;48.424;11.258;2022-11-20T14:20:27;95018.84;;;8.67;78.05
25526;BME280;13424;48.424;11.258;2022-11-20T14:22:54;95011.78;;;8.73;77.28
25526;BME280;13424;48.424;11.258;2022-11-20T14:25:25;95025.47;;;8.64;77.97
25526;BME280;13424;48.424;11.258;2022-11-20T14:27:58;95013.53;;;8.67;77.51
25526;BME280;13424;48.424;11.258;2022-11-20T14:30:37;95010.56;;;8.80;77.03
25526;BME280;13424;48.424;11.258;2022-11-20T14:33:03;95014.13;;;8.69;77.37
25526;BME280;13424;48.424;11.258;2022-11-20T14:35:34;95018.53;;;8.63;77.96
25526;BME280;13424;48.424;11.258;2022-11-20T14:38:01;95003.78;;;8.73;77.74
25526;BME280;13424;48.424;11.258;2022-11-20T14:40:34;95008.84;;;8.91;76.51
25526;BME280;13424;48.424;11.258;2022-11-20T14:43:25;95013.13;;;8.92;77.05
25526;BME280;13424;48.424;11.258;2022-11-20T14:46:05;95006.94;;;8.86;76.58